Time;durP1;ratioP1;P1;durP2;ratioP2;P2;SDS_P1;SDS_P2;PMS_P1;PMS_P2;Temp;Humidity;BMP_temperature;BMP_pressure;BME280_temperature;BME280_humidity;BME280_pressure;Samples;Min_cycle;Max_cycle;Signal;HPM_P1;HPM_P2
2023/08/21 00:01:52;;;;;;;;;2.00;1.00;;;;;-146.67;100.00;57155.34;5067367;28;8715;-75
2023/08/21 00:04:17;;;;;;;;;0.00;0.00;;;;;-146.67;100.00;57155.34;5086171;28;9329;-74
2023/08/21 00:06:43;;;;;;;;;0.00;0.00;;;;;-146.67;100.00;57155.34;5103113;28;9877;-75
2023/08/21 00:09:08;;;;;;;;;2.33;0.00;;;;;-146.67;100.00;57155.34;5104171;28;8893;-74
2023/08/21 00:11:34;;;;;;;;;0.33;0.00;;;;;-146.67;100.00;57155.34;5104232;28;8891;-75
2023/08/21 00:13:59;;;;;;;;;1.00;0.67;;;;;-146.67;100.00;57155.34;5104140;28;8768;-74
2023/08/21 00:16:29;;;;;;;;;0.00;0.00;;;;;-146.67;100.00;57155.34;5104533;28;8846;-75
2023/08/21 00:18:55;;;;;;;;;4.00;1.00;;;;;-146.67;100.00;57155.34;5104383;28;8968;-74
2023/08/21 00:21:20;;;;;;;;;0.67;0.00;;;;;-146.67;100.00;57155.34;5104085;28;9390;-74
2023/08/21 00:23:46;;;;;;;;;0.67;0.67;;;;;-146.67;100.00;57155.34;5093589;28;8806;-75
2023/08/21 00:26:12;;;;;;;;;5.00;0.00;;;;;-146.67;100.00;57155.34;5084058;28;8771;-74
2023/08/21 00:28:38;;;;;;;;;0.67;0.00;;;;;-146.67;100.00;57155.34;5065512;28;8746;-74
2023/08/21 00:31:03;;;;;;;;;1.00;0.33;;;;;-146.67;100.00;57155.34;5083748;28;8928;-75
2023/08/21 00:33:33;;;;;;;;;0.67;0.67;;;;;-146.67;100.00;57155.34;5083647;28;8778;-75
2023/08/21 00:35:58;;;;;;;;;2.00;0.67;;;;;-146.67;100.00;57155.34;5083992;28;8779;-74
2023/08/21 00:38:24;;;;;;;;;0.67;0.67;;;;;-146.67;100.00;57155.34;5087623;28;9371;-75
2023/08/21 00:40:50;;;;;;;;;3.00;1.00;;;;;-146.67;100.00;57155.34;5065228;28;9701;-75
2023/08/21 00:43:16;;;;;;;;;0.00;0.00;;;;;-146.67;100.00;57155.34;5083140;28;8758;-75
2023/08/21 00:45:43;;;;;;;;;0.67;0.67;;;;;-146.67;100.00;57155.34;5065253;28;10153;-75
2023/08/21 00:48:09;;;;;;;;;0.00;0.00;;;;;-146.67;100.00;57155.34;5083703;28;8844;-74
2023/08/21 00:50:35;;;;;;;;;2.00;0.00;;;;;-146.67;100.00;57155.34;5082026;28;9207;-74
2023/08/21 00:53:02;;;;;;;;;1.67;0.33;;;;;-146.67;100.00;57155.34;5082889;28;9205;-74
2023/08/21 00:55:28;;;;;;;;;0.33;0.33;;;;;-146.67;100.00;57155.34;5083272;28;9460;-75
2023/08/21 00:57:54;;;;;;;;;0.00;0.00;;;;;-146.67;100.00;57155.34;5065396;28;9355;-74
2023/08/21 01:00:22;;;;;;;;;0.00;0.00;;;;;-146.67;100.00;57155.34;5083192;28;9770;-75
2023/08/21 01:02:47;;;;;;;;;0.00;0.00;;;;;-146.67;100.00;57155.34;5083690;28;9158;-74
2023/08/21 01:05:12;;;;;;;;;0.33;0.33;;;;;-146.67;100.00;57155.34;5083023;28;9445;-74
2023/08/21 01:07:51;;;;;;;;;0.67;0.67;;;;;-146.67;100.00;57155.34;5083558;28;8833;-74
2023/08/21 01:10:30;;;;;;;;;0.00;0.00;;;;;-146.67;100.00;57155.34;5083310;28;8768;-74
2023/08/21 01:13:14;;;;;;;;;0.00;0.00;;;;;-146.67;100.00;57155.34;5083085;28;9415;-74
2023/08/21 01:15:41;;;;;;;;;1.33;0.33;;;;;-146.67;100.00;57155.34;5082994;28;9477;-75
2023/08/21 01:18:08;;;;;;;;;0.00;0.00;;;;;-146.67;100.00;57155.34;5082965;28;9393;-75
2023/08/21 01:20:33;;;;;;;;;0.00;0.00;;;;;-146.67;100.00;57155.34;5082507;28;9479;-74
2023/08/21 01:23:05;;;;;;;;;3.00;1.00;;;;;-146.67;100.00;57155.34;5081564;28;9597;-75
2023/08/21 01:25:31;;;;;;;;;2.00;0.00;;;;;-146.67;100.00;57155.34;5082985;28;8733;-74
2023/08/21 01:27:56;;;;;;;;;1.00;1.00;;;;;-146.67;100.00;57155.34;5082791;28;9430;-74
2023/08/21 01:30:22;;;;;;;;;3.00;0.75;;;;;-146.67;100.00;57155.34;5064037;28;8844;-75
2023/08/21 01:32:51;;;;;;;;;0.75;0.75;;;;;-146.67;100.00;57155.34;5064479;28;8800;-75
2023/08/21 01:35:17;;;;;;;;;1.00;1.00;;;;;-146.67;100.00;57155.34;5082501;28;8781;-74
2023/08/21 01:37:43;;;;;;;;;0.00;0.00;;;;;-146.67;100.00;57155.34;5064321;28;9567;-75
2023/08/21 01:40:09;;;;;;;;;2.00;1.00;;;;;-146.67;100.00;57155.34;5082860;28;8770;-74
2023/08/21 01:42:34;;;;;;;;;2.00;1.00;;;;;-146.67;100.00;57155.34;5083069;28;9715;-74
2023/08/21 01:44:59;;;;;;;;;1.00;1.00;;;;;-146.67;100.00;57155.34;5064055;28;10248;-74
2023/08/21 01:47:25;;;;;;;;;1.00;0.00;;;;;-146.67;100.00;57155.34;5082677;28;8811;-75
2023/08/21 01:49:53;;;;;;;;;0.00;0.00;;;;;-146.67;100.00;57155.34;5064278;28;8832;-74
2023/08/21 01:52:19;;;;;;;;;0.50;0.25;;;;;-146.67;100.00;57155.34;5081941;28;8707;-74
2023/08/21 01:54:44;;;;;;;;;0.00;0.00;;;;;-146.67;100.00;57155.34;5048851;28;9979;-74
2023/08/21 01:57:10;;;;;;;;;0.25;0.25;;;;;-146.67;100.00;57155.34;5062833;28;9507;-75
2023/08/21 01:59:35;;;;;;;;;0.00;0.00;;;;;-146.67;100.00;57155.34;5062180;28;8771;-74
2023/08/21 02:02:01;;;;;;;;;0.75;0.75;;;;;-146.67;100.00;57155.34;5062650;28;8837;-76
2023/08/21 02:04:26;;;;;;;;;2.00;1.00;;;;;-146.67;100.00;57155.34;5062247;28;8805;-74
2023/08/21 02:06:52;;;;;;;;;3.00;0.75;;;;;-146.67;100.00;57155.34;5062155;28;8817;-74
2023/08/21 02:09:17;;;;;;;;;0.75;0.00;;;;;-146.67;100.00;57155.34;5062357;28;8846;-74
2023/08/21 02:11:42;;;;;;;;;1.00;1.00;;;;;-146.67;100.00;57155.34;5062360;28;8837;-74
2023/08/21 02:14:08;;;;;;;;;1.50;1.00;;;;;-146.67;100.00;57155.34;5043735;28;9898;-75
2023/08/21 02:16:33;;;;;;;;;0.50;0.50;;;;;-146.67;100.00;57155.34;5044022;28;9360;-74
2023/08/21 02:18:58;;;;;;;;;1.50;0.25;;;;;-146.67;100.00;57155.34;5061718;28;8791;-74
2023/08/21 02:21:24;;;;;;;;;1.50;0.00;;;;;-146.67;100.00;57155.34;5059999;28;8791;-75
2023/08/21 02:23:49;;;;;;;;;0.50;0.00;;;;;-146.67;100.00;57155.34;5062013;28;8811;-74
2023/08/21 02:26:15;;;;;;;;;1.00;1.00;;;;;-146.67;100.00;57155.34;5060671;28;8803;-74
2023/08/21 02:28:40;;;;;;;;;0.75;0.25;;;;;-146.67;100.00;57155.34;5043311;28;8839;-75
2023/08/21 02:31:10;;;;;;;;;1.67;0.00;;;;;-146.67;100.00;57155.34;5061997;28;8802;-74
2023/08/21 02:33:35;;;;;;;;;1.67;0.67;;;;;-146.67;100.00;57155.34;5062266;28;8744;-75
2023/08/21 02:36:00;;;;;;;;;1.00;1.00;;;;;-146.67;100.00;57155.34;5047411;28;9580;-75
2023/08/21 02:38:26;;;;;;;;;1.00;1.00;;;;;-146.67;100.00;57155.34;5065563;28;8855;-75
2023/08/21 02:40:51;;;;;;;;;1.00;1.00;;;;;-146.67;100.00;57155.34;5065831;28;8767;-74
2023/08/21 02:43:17;;;;;;;;;1.75;1.00;;;;;-146.67;100.00;57155.34;5047381;28;9909;-75
2023/08/21 02:45:42;;;;;;;;;1.00;1.00;;;;;-146.67;100.00;57155.34;5065114;28;8809;-75
2023/08/21 02:48:07;;;;;;;;;0.00;0.00;;;;;-146.67;100.00;57155.34;5065756;28;8819;-74
2023/08/21 02:50:33;;;;;;;;;3.33;1.00;;;;;-146.67;100.00;57155.34;5064755;28;8787;-74
2023/08/21 02:52:58;;;;;;;;;2.00;0.00;;;;;-146.67;100.00;57155.34;5065131;28;8824;-75
2023/08/21 02:55:24;;;;;;;;;1.33;0.33;;;;;-146.67;100.00;57155.34;5065472;28;8788;-75
2023/08/21 02:57:49;;;;;;;;;0.50;0.50;;;;;-146.67;100.00;57155.34;5065418;28;8818;-74
2023/08/21 03:00:14;;;;;;;;;2.00;0.75;;;;;-146.67;100.00;57155.34;5065326;28;8771;-74
2023/08/21 03:02:43;;;;;;;;;0.00;0.00;;;;;-146.67;100.00;57155.34;5065278;28;8821;-75
2023/08/21 03:05:09;;;;;;;;;1.00;0.00;;;;;-146.67;100.00;57155.34;5063513;28;8774;-75
2023/08/21 03:07:34;;;;;;;;;0.00;0.00;;;;;-146.67;100.00;57155.34;5064970;28;9574;-74
2023/08/21 03:10:01;;;;;;;;;0.75;0.75;;;;;-146.67;100.00;57155.34;5065306;28;9257;-74
2023/08/21 03:12:27;;;;;;;;;2.00;0.00;;;;;-146.67;100.00;57155.34;5063839;28;10559;-75
2023/08/21 03:14:52;;;;;;;;;1.00;0.00;;;;;-146.67;100.00;57155.34;5062800;28;9612;-75
2023/08/21 03:17:18;;;;;;;;;0.75;0.75;;;;;-146.67;100.00;57155.34;5063982;28;8795;-74
2023/08/21 03:19:43;;;;;;;;;2.00;1.25;;;;;-146.67;100.00;57155.34;5062508;28;8863;-75
2023/08/21 03:22:08;;;;;;;;;1.75;1.75;;;;;-146.67;100.00;57155.34;5063794;28;9849;-75
2023/08/21 03:24:34;;;;;;;;;2.00;0.25;;;;;-146.67;100.00;57155.34;5064742;28;9755;-74
2023/08/21 03:26:59;;;;;;;;;1.25;1.00;;;;;-146.67;100.00;57155.34;5063277;28;8779;-75
2023/08/21 03:29:24;;;;;;;;;1.50;0.00;;;;;-146.67;100.00;57155.34;5064070;28;8818;-75
2023/08/21 03:31:50;;;;;;;;;2.75;1.75;;;;;-146.67;100.00;57155.34;5064568;28;8791;-75
2023/08/21 03:34:15;;;;;;;;;1.00;1.00;;;;;-146.67;100.00;57155.34;5064485;28;8799;-74
2023/08/21 03:36:41;;;;;;;;;1.00;1.00;;;;;-146.67;100.00;57155.34;5064860;28;8794;-74
2023/08/21 03:39:06;;;;;;;;;1.00;1.00;;;;;-146.67;100.00;57155.34;5064592;28;8791;-74
2023/08/21 03:41:32;;;;;;;;;0.25;0.25;;;;;-146.67;100.00;57155.34;5064859;28;8838;-75
2023/08/21 03:43:57;;;;;;;;;1.00;1.00;;;;;-146.67;100.00;57155.34;5064131;28;9538;-75
2023/08/21 03:46:23;;;;;;;;;3.00;1.50;;;;;-146.67;100.00;57155.34;5064368;28;8780;-74
2023/08/21 03:48:50;;;;;;;;;1.00;1.00;;;;;-146.67;100.00;57155.34;5064356;28;8822;-75
2023/08/21 03:51:15;;;;;;;;;2.25;2.00;;;;;-146.67;100.00;57155.34;5064126;28;8795;-75
2023/08/21 03:53:41;;;;;;;;;1.33;0.67;;;;;-146.67;100.00;57155.34;5077646;28;9570;-75
2023/08/21 03:56:06;;;;;;;;;1.33;0.67;;;;;-146.67;100.00;57155.34;5084376;28;8793;-74
2023/08/21 03:58:32;;;;;;;;;2.00;2.00;;;;;-146.67;100.00;57155.34;5099976;28;8783;-74
2023/08/21 04:00:57;;;;;;;;;1.00;1.00;;;;;-146.67;100.00;57155.34;5084570;28;8816;-74
2023/08/21 04:03:22;;;;;;;;;1.50;0.00;;;;;-146.67;100.00;57155.34;5065924;28;8818;-75
2023/08/21 04:05:48;;;;;;;;;3.75;1.25;;;;;-146.67;100.00;57155.34;5066335;28;8897;-75
2023/08/21 04:08:13;;;;;;;;;2.25;0.50;;;;;-146.67;100.00;57155.34;5084047;28;8934;-75
2023/08/21 04:10:39;;;;;;;;;4.00;1.00;;;;;-146.67;100.00;57155.34;5084466;28;8782;-75
2023/08/21 04:13:05;;;;;;;;;0.75;0.25;;;;;-146.67;100.00;57155.34;5065854;28;8813;-75
2023/08/21 04:15:31;;;;;;;;;2.00;0.00;;;;;-146.67;100.00;57155.34;5084030;28;8763;-74
2023/08/21 04:17:56;;;;;;;;;0.75;0.50;;;;;-146.67;100.00;57155.34;5084251;28;8862;-74
2023/08/21 04:20:22;;;;;;;;;2.50;2.00;;;;;-146.67;100.00;57155.34;5065130;28;10295;-74
2023/08/21 04:22:48;;;;;;;;;1.50;1.50;;;;;-146.67;100.00;57155.34;5084197;28;8803;-74
2023/08/21 04:25:13;;;;;;;;;3.00;2.00;;;;;-146.67;100.00;57155.34;5083735;28;8719;-75
2023/08/21 04:27:39;;;;;;;;;1.00;1.00;;;;;-146.67;100.00;57155.34;5065817;28;9848;-75
2023/08/21 04:30:05;;;;;;;;;1.00;1.00;;;;;-146.67;100.00;57155.34;5083236;28;8930;-75
2023/08/21 04:32:31;;;;;;;;;1.50;1.00;;;;;-146.67;100.00;57155.34;5083615;28;8752;-75
2023/08/21 04:34:56;;;;;;;;;2.00;2.00;;;;;-146.67;100.00;57155.34;5083953;28;9628;-74
2023/08/21 04:37:23;;;;;;;;;3.00;2.00;;;;;-146.67;100.00;57155.34;5083796;28;8771;-75
2023/08/21 04:39:52;;;;;;;;;1.00;1.00;;;;;-146.67;100.00;57155.34;5083904;28;8719;-75
2023/08/21 04:42:17;;;;;;;;;2.00;2.00;;;;;-146.67;100.00;57155.34;5083764;28;9661;-74
2023/08/21 04:44:43;;;;;;;;;2.50;1.00;;;;;-146.67;100.00;57155.34;5083324;28;9787;-75
2023/08/21 04:47:23;;;;;;;;;1.75;1.25;;;;;-146.67;100.00;57155.34;5098870;28;8807;-74
2023/08/21 04:49:49;;;;;;;;;2.00;2.00;;;;;-146.67;100.00;57155.34;5083243;28;8802;-75
2023/08/21 04:52:14;;;;;;;;;3.50;1.50;;;;;-146.67;100.00;57155.34;5083410;28;9835;-75
2023/08/21 04:54:40;;;;;;;;;3.50;2.25;;;;;-146.67;100.00;57155.34;5083606;28;9904;-75
2023/08/21 04:57:05;;;;;;;;;2.00;2.00;;;;;-146.67;100.00;57155.34;5082673;28;8805;-75
2023/08/21 04:59:30;;;;;;;;;1.25;1.25;;;;;-146.67;100.00;57155.34;5083197;28;8834;-74
2023/08/21 05:01:56;;;;;;;;;5.00;1.00;;;;;-146.67;100.00;57155.34;5083559;28;8779;-75
2023/08/21 05:04:21;;;;;;;;;2.00;1.00;;;;;-146.67;100.00;57155.34;5083143;28;8783;-74
2023/08/21 05:06:54;;;;;;;;;4.00;2.50;;;;;-146.67;100.00;57155.34;5082714;28;8855;-75
2023/08/21 05:09:20;;;;;;;;;3.50;3.00;;;;;-146.67;100.00;57155.34;5064851;28;10985;-75
2023/08/21 05:11:45;;;;;;;;;3.75;2.75;;;;;-146.67;100.00;57155.34;5082875;28;9987;-75
2023/08/21 05:14:11;;;;;;;;;4.00;2.00;;;;;-146.67;100.00;57155.34;5082410;28;8825;-75
2023/08/21 05:16:36;;;;;;;;;1.00;1.00;;;;;-146.67;100.00;57155.34;5081282;28;8799;-75
2023/08/21 05:19:02;;;;;;;;;3.25;2.25;;;;;-146.67;100.00;57155.34;5082732;28;8807;-75
2023/08/21 05:21:27;;;;;;;;;4.25;2.50;;;;;-146.67;100.00;57155.34;5081656;28;8783;-75
2023/08/21 05:23:53;;;;;;;;;1.75;1.75;;;;;-146.67;100.00;57155.34;5082537;28;8775;-75
2023/08/21 05:26:19;;;;;;;;;2.25;1.00;;;;;-146.67;100.00;57155.34;5064672;28;8787;-74
2023/08/21 05:28:45;;;;;;;;;3.00;2.00;;;;;-146.67;100.00;57155.34;5063545;28;10639;-76
2023/08/21 05:31:10;;;;;;;;;1.00;1.00;;;;;-146.67;100.00;57155.34;5064659;28;9938;-75
2023/08/21 05:33:35;;;;;;;;;3.00;2.00;;;;;-146.67;100.00;57155.34;5065507;28;8908;-75
2023/08/21 05:36:01;;;;;;;;;1.00;1.00;;;;;-146.67;100.00;57155.34;5092221;28;8807;-75
2023/08/21 05:38:26;;;;;;;;;2.00;2.00;;;;;-146.67;100.00;57155.34;5082273;28;8802;-75
2023/08/21 05:40:52;;;;;;;;;5.25;2.25;;;;;-146.67;100.00;57155.34;5082806;28;8825;-75
2023/08/21 05:43:17;;;;;;;;;3.00;2.00;;;;;-146.67;100.00;57155.34;5082720;28;8828;-75
2023/08/21 05:45:43;;;;;;;;;1.00;1.00;;;;;-146.67;100.00;57155.34;5082231;28;8770;-74
2023/08/21 05:48:08;;;;;;;;;2.75;1.25;;;;;-146.67;100.00;57155.34;5082937;28;8855;-74
2023/08/21 05:50:36;;;;;;;;;3.00;1.00;;;;;-146.67;100.00;57155.34;5066735;28;8819;-73
2023/08/21 05:53:05;;;;;;;;;2.00;2.00;;;;;-146.67;100.00;57155.34;5081923;28;8743;-73
2023/08/21 05:55:30;;;;;;;;;3.00;3.00;;;;;-146.67;100.00;57155.34;5079511;28;9769;-73
2023/08/21 05:57:56;;;;;;;;;4.25;2.25;;;;;-146.67;100.00;57155.34;5082466;28;10255;-74
2023/08/21 06:00:21;;;;;;;;;1.00;1.00;;;;;-146.67;100.00;57155.34;5082209;28;8942;-73
2023/08/21 06:02:47;;;;;;;;;1.50;1.50;;;;;-146.67;100.00;57155.34;5082577;28;9554;-73
2023/08/21 06:05:12;;;;;;;;;4.50;1.25;;;;;-146.67;100.00;57155.34;5082349;28;8802;-73
2023/08/21 06:07:37;;;;;;;;;1.50;1.50;;;;;-146.67;100.00;57155.34;5081047;28;8822;-74
2023/08/21 06:10:04;;;;;;;;;3.25;1.75;;;;;-146.67;100.00;57155.34;5075023;28;8816;-75
2023/08/21 06:12:30;;;;;;;;;1.25;1.25;;;;;-146.67;100.00;57155.34;5087887;28;8755;-74
2023/08/21 06:14:55;;;;;;;;;5.50;1.75;;;;;-146.67;100.00;57155.34;5091349;28;9844;-74
2023/08/21 06:17:22;;;;;;;;;2.00;2.00;;;;;-146.67;100.00;57155.34;5072834;28;9893;-74
2023/08/21 06:19:47;;;;;;;;;5.50;2.00;;;;;-146.67;100.00;57155.34;5091750;28;8784;-74
2023/08/21 06:22:13;;;;;;;;;1.00;1.00;;;;;-146.67;100.00;57155.34;5095694;28;9737;-74
2023/08/21 06:24:38;;;;;;;;;2.50;1.25;;;;;-146.67;100.00;57155.34;5065173;28;8798;-74
2023/08/21 06:27:04;;;;;;;;;0.25;0.25;;;;;-146.67;100.00;57155.34;5063235;28;9919;-74
2023/08/21 06:29:29;;;;;;;;;3.50;1.00;;;;;-146.67;100.00;57155.34;5081039;28;8915;-74
2023/08/21 06:31:54;;;;;;;;;2.25;1.25;;;;;-146.67;100.00;57155.34;5081717;28;8791;-74
2023/08/21 06:34:20;;;;;;;;;1.50;1.50;;;;;-146.67;100.00;57155.34;5081746;28;8783;-74
2023/08/21 06:36:45;;;;;;;;;2.50;1.25;;;;;-146.67;100.00;57155.34;5063955;28;10291;-74
2023/08/21 06:39:10;;;;;;;;;0.00;0.00;;;;;-146.67;100.00;57155.34;5098170;28;8808;-74
2023/08/21 06:41:36;;;;;;;;;1.50;1.25;;;;;-146.67;100.00;57155.34;5102134;28;8838;-74
2023/08/21 06:44:01;;;;;;;;;2.00;1.00;;;;;-146.67;100.00;57155.34;5101330;28;8820;-74
2023/08/21 06:46:27;;;;;;;;;1.25;1.25;;;;;-146.67;100.00;57155.34;5102277;28;8871;-74
2023/08/21 06:48:52;;;;;;;;;1.50;1.50;;;;;-146.67;100.00;57155.34;5100880;28;8811;-74
2023/08/21 06:51:17;;;;;;;;;2.00;2.00;;;;;-146.67;100.00;57155.34;5083641;28;8803;-74
2023/08/21 06:53:43;;;;;;;;;1.67;0.67;;;;;-146.67;100.00;57155.34;5094437;28;8810;-75
2023/08/21 06:56:08;;;;;;;;;0.67;0.67;;;;;-146.67;100.00;57155.34;5063113;28;9977;-74
2023/08/21 06:58:33;;;;;;;;;2.75;1.00;;;;;-146.67;100.00;57155.34;5081667;28;8814;-73
2023/08/21 07:01:00;;;;;;;;;2.67;0.00;;;;;-146.67;100.00;57155.34;5079948;28;8816;-76
2023/08/21 07:03:26;;;;;;;;;2.00;0.00;;;;;-146.67;100.00;57155.34;5056609;28;8746;-76
2023/08/21 07:05:56;;;;;;;;;0.00;0.00;;;;;-146.67;100.00;57155.34;5081208;28;9507;-77
2023/08/21 07:08:22;;;;;;;;;2.00;0.25;;;;;-146.67;100.00;57155.34;5081168;28;8799;-76
2023/08/21 07:10:47;;;;;;;;;0.00;0.00;;;;;-146.67;100.00;57155.34;5081204;28;9464;-76
2023/08/21 07:13:12;;;;;;;;;2.33;0.00;;;;;-146.67;100.00;57155.34;5080865;28;11407;-76
2023/08/21 07:15:38;;;;;;;;;1.00;1.00;;;;;-146.67;100.00;57155.34;5080722;28;8782;-76
2023/08/21 07:18:03;;;;;;;;;2.00;0.00;;;;;-146.67;100.00;57155.34;5063861;28;8799;-76
2023/08/21 07:20:29;;;;;;;;;2.00;0.67;;;;;-146.67;100.00;57155.34;5064787;28;8801;-76
2023/08/21 07:22:54;;;;;;;;;0.00;0.00;;;;;-146.67;100.00;57155.34;5067153;28;8944;-76
2023/08/21 07:25:19;;;;;;;;;0.67;0.33;;;;;-146.67;100.00;57155.34;5084829;28;8809;-76
2023/08/21 07:27:45;;;;;;;;;2.67;0.67;;;;;-146.67;100.00;57155.34;5067026;28;8814;-76
2023/08/21 07:30:10;;;;;;;;;1.67;1.00;;;;;-146.67;100.00;57155.34;5084695;28;8809;-76
2023/08/21 07:32:36;;;;;;;;;0.67;0.67;;;;;-146.67;100.00;57155.34;5085210;28;8877;-76
2023/08/21 07:35:01;;;;;;;;;1.00;1.00;;;;;-146.67;100.00;57155.34;5066747;28;8810;-76
2023/08/21 07:37:27;;;;;;;;;0.00;0.00;;;;;-146.67;100.00;57155.34;5085509;28;8775;-76
2023/08/21 07:39:53;;;;;;;;;0.00;0.00;;;;;-146.67;100.00;57155.34;5066913;28;8909;-76
2023/08/21 07:42:18;;;;;;;;;1.67;0.67;;;;;-146.67;100.00;57155.34;5067038;28;9609;-76
2023/08/21 07:44:45;;;;;;;;;1.00;0.00;;;;;-146.67;100.00;57155.34;5084805;28;8867;-76
2023/08/21 07:47:10;;;;;;;;;0.00;0.00;;;;;-146.67;100.00;57155.34;5066832;28;8790;-76
2023/08/21 07:49:35;;;;;;;;;0.00;0.00;;;;;-146.67;100.00;57155.34;5084474;28;10002;-76
2023/08/21 07:52:04;;;;;;;;;0.00;0.00;;;;;-146.67;100.00;57155.34;5066903;28;8794;-76
2023/08/21 07:54:29;;;;;;;;;4.00;0.00;;;;;-146.67;100.00;57155.34;5066152;28;10142;-76
2023/08/21 07:56:54;;;;;;;;;0.33;0.33;;;;;-146.67;100.00;57155.34;5083506;28;9310;-76
2023/08/21 07:59:20;;;;;;;;;0.67;0.00;;;;;-146.67;100.00;57155.34;5066533;28;8816;-76
2023/08/21 08:01:45;;;;;;;;;0.00;0.00;;;;;-146.67;100.00;57155.34;5084787;28;8759;-76
2023/08/21 08:04:11;;;;;;;;;0.67;0.00;;;;;-146.67;100.00;57155.34;5084637;28;8767;-76
2023/08/21 08:06:36;;;;;;;;;0.00;0.00;;;;;-146.67;100.00;57155.34;5084690;28;9643;-76
2023/08/21 08:09:03;;;;;;;;;1.00;1.00;;;;;-146.67;100.00;57155.34;5082962;28;8833;-76
2023/08/21 08:11:29;;;;;;;;;0.00;0.00;;;;;-146.67;100.00;57155.34;5084480;28;8762;-76
2023/08/21 08:13:55;;;;;;;;;0.00;0.00;;;;;-146.67;100.00;57155.34;5083177;28;9880;-76
2023/08/21 08:16:20;;;;;;;;;0.00;0.00;;;;;-146.67;100.00;57155.34;5084433;28;8715;-76
2023/08/21 08:18:46;;;;;;;;;0.00;0.00;;;;;-146.67;100.00;57155.34;5084802;28;9369;-76
2023/08/21 08:21:11;;;;;;;;;1.00;1.00;;;;;-146.67;100.00;57155.34;5066345;28;8932;-76
2023/08/21 08:23:37;;;;;;;;;0.00;0.00;;;;;-146.67;100.00;57155.34;5066088;28;10242;-76
2023/08/21 08:26:02;;;;;;;;;1.00;0.00;;;;;-146.67;100.00;57155.34;5084791;28;8759;-76
2023/08/21 08:28:28;;;;;;;;;0.00;0.00;;;;;-146.67;100.00;57155.34;5084269;28;9543;-76
2023/08/21 08:30:54;;;;;;;;;0.67;0.00;;;;;-146.67;100.00;57155.34;5084256;28;8853;-76
2023/08/21 08:33:19;;;;;;;;;0.00;0.00;;;;;-146.67;100.00;57155.34;5084491;28;8760;-76
2023/08/21 08:35:45;;;;;;;;;0.00;0.00;;;;;-146.67;100.00;57155.34;5084270;28;9400;-76
2023/08/21 08:38:10;;;;;;;;;0.00;0.00;;;;;-146.67;100.00;57155.34;5084148;28;8775;-76
2023/08/21 08:40:43;;;;;;;;;0.00;0.00;;;;;-146.67;100.00;57155.34;5066258;28;8842;-76
2023/08/21 08:43:11;;;;;;;;;0.00;0.00;;;;;-146.67;100.00;57155.34;5084383;28;8856;-76
2023/08/21 08:45:37;;;;;;;;;0.00;0.00;;;;;-146.67;100.00;57155.34;5082439;28;9275;-75
2023/08/21 08:48:05;;;;;;;;;0.00;0.00;;;;;-146.67;100.00;57155.34;5084013;28;9281;-75
2023/08/21 08:50:31;;;;;;;;;0.00;0.00;;;;;-146.67;100.00;57155.34;5083209;28;9352;-76
2023/08/21 08:52:58;;;;;;;;;0.00;0.00;;;;;-146.67;100.00;57155.34;5065210;28;10310;-75
2023/08/21 08:55:25;;;;;;;;;0.67;0.00;;;;;-146.67;100.00;57155.34;5065650;28;9143;-75
2023/08/21 08:57:52;;;;;;;;;0.67;0.00;;;;;-146.67;100.00;57155.34;5065760;28;9366;-75
2023/08/21 09:00:17;;;;;;;;;0.00;0.00;;;;;-146.67;100.00;57155.34;5065348;28;9244;-75
2023/08/21 09:02:43;;;;;;;;;0.00;0.00;;;;;-146.67;100.00;57155.34;5083640;28;9362;-75
2023/08/21 09:05:10;;;;;;;;;0.00;0.00;;;;;-146.67;100.00;57155.34;5065662;28;8802;-75
2023/08/21 09:07:36;;;;;;;;;0.00;0.00;;;;;-146.67;100.00;57155.34;5083232;28;9728;-75
2023/08/21 09:10:02;;;;;;;;;0.00;0.00;;;;;-146.67;100.00;57155.34;5083741;28;9172;-75
2023/08/21 09:12:31;;;;;;;;;1.00;0.00;;;;;-146.67;100.00;57155.34;5065441;28;10037;-76
2023/08/21 09:14:58;;;;;;;;;0.00;0.00;;;;;-146.67;100.00;57155.34;5083261;28;9223;-76
2023/08/21 09:17:24;;;;;;;;;0.00;0.00;;;;;-146.67;100.00;57155.34;5083943;28;9080;-76
2023/08/21 09:19:49;;;;;;;;;0.00;0.00;;;;;-146.67;100.00;57155.34;5083387;28;9358;-76
2023/08/21 09:22:18;;;;;;;;;0.00;0.00;;;;;-146.67;100.00;57155.34;5083348;28;9568;-75
2023/08/21 09:25:06;;;;;;;;;1.33;0.67;;;;;-146.67;100.00;57155.34;5083507;28;8715;-75
2023/08/21 09:27:36;;;;;;;;;0.00;0.00;;;;;-146.67;100.00;57155.34;5065485;28;9253;-76
2023/08/21 09:30:08;;;;;;;;;0.00;0.00;;;;;-146.67;100.00;57155.34;5083300;28;9286;-76
2023/08/21 09:33:00;;;;;;;;;0.00;0.00;;;;;-146.67;100.00;57155.34;5083529;28;9145;-76
2023/08/21 09:35:26;;;;;;;;;0.00;0.00;;;;;-146.67;100.00;57155.34;5082973;28;9232;-76
2023/08/21 09:37:53;;;;;;;;;0.67;0.00;;;;;-146.67;100.00;57155.34;5083277;28;9276;-75
2023/08/21 09:40:19;;;;;;;;;0.00;0.00;;;;;-146.67;100.00;57155.34;5065199;28;9733;-75
2023/08/21 09:42:44;;;;;;;;;1.00;0.00;;;;;-146.67;100.00;57155.34;5082427;28;9530;-75
2023/08/21 09:45:09;;;;;;;;;1.00;0.00;;;;;-146.67;100.00;57155.34;5064606;28;11359;-76
2023/08/21 09:47:38;;;;;;;;;1.67;1.67;;;;;-146.67;100.00;57155.34;5064824;28;8810;-75
2023/08/21 09:50:04;;;;;;;;;0.33;0.33;;;;;-146.67;100.00;57155.34;5082352;28;8755;-75
2023/08/21 09:52:30;;;;;;;;;4.67;0.00;;;;;-146.67;100.00;57155.34;5082817;28;9346;-76
2023/08/21 09:54:57;;;;;;;;;0.00;0.00;;;;;-146.67;100.00;57155.34;5098253;28;9189;-75
2023/08/21 09:57:23;;;;;;;;;0.67;0.67;;;;;-146.67;100.00;57155.34;5065029;28;9196;-76
2023/08/21 09:59:53;;;;;;;;;0.00;0.00;;;;;-146.67;100.00;57155.34;5081137;28;9134;-75
2023/08/21 10:02:20;;;;;;;;;0.00;0.00;;;;;-146.67;100.00;57155.34;5083012;28;9410;-75
2023/08/21 10:04:49;;;;;;;;;1.67;1.00;;;;;-146.67;100.00;57155.34;5082261;28;9177;-75
2023/08/21 10:07:16;;;;;;;;;0.33;0.33;;;;;-146.67;100.00;57155.34;5083026;28;9215;-75
2023/08/21 10:09:43;;;;;;;;;0.67;0.67;;;;;-146.67;100.00;57155.34;5082864;28;9296;-76
2023/08/21 10:12:09;;;;;;;;;0.33;0.33;;;;;-146.67;100.00;57155.34;5081729;28;9950;-75
2023/08/21 10:14:36;;;;;;;;;0.00;0.00;;;;;-146.67;100.00;57155.34;5082688;28;9173;-75
2023/08/21 10:17:02;;;;;;;;;0.00;0.00;;;;;-146.67;100.00;57155.34;5082847;28;8965;-76
2023/08/21 10:19:34;;;;;;;;;0.00;0.00;;;;;-146.67;100.00;57155.34;5082245;28;9293;-76
2023/08/21 10:21:59;;;;;;;;;0.00;0.00;;;;;-146.67;100.00;57155.34;5082857;28;8782;-75
2023/08/21 10:24:36;;;;;;;;;0.67;0.67;;;;;-146.67;100.00;57155.34;5082853;28;9185;-76
2023/08/21 10:27:01;;;;;;;;;0.00;0.00;;;;;-146.67;100.00;57155.34;5082885;28;8833;-75
2023/08/21 10:29:27;;;;;;;;;0.00;0.00;;;;;-146.67;100.00;57155.34;5082541;28;9063;-76
2023/08/21 10:32:02;;;;;;;;;0.00;0.00;;;;;-146.67;100.00;57155.34;5081040;28;9838;-76
2023/08/21 10:34:37;;;;;;;;;1.00;1.00;;;;;-146.67;100.00;57155.34;5080568;28;8805;-75
2023/08/21 10:37:04;;;;;;;;;0.00;0.00;;;;;-146.67;100.00;57155.34;5080949;28;9115;-75
2023/08/21 10:39:31;;;;;;;;;1.33;0.33;;;;;-146.67;100.00;57155.34;5081019;28;9972;-76
2023/08/21 10:42:09;;;;;;;;;0.67;0.33;;;;;-146.67;100.00;57155.34;5082399;28;9320;-75
2023/08/21 10:44:55;;;;;;;;;0.00;0.00;;;;;-146.67;100.00;57155.34;5082023;28;9030;-75
2023/08/21 10:47:23;;;;;;;;;0.00;0.00;;;;;-146.67;100.00;57155.34;5081062;28;8893;-76
2023/08/21 10:49:57;;;;;;;;;0.33;0.33;;;;;-146.67;100.00;57155.34;5081493;28;8901;-75
2023/08/21 10:52:44;;;;;;;;;0.67;0.00;;;;;-146.67;100.00;57155.34;5082203;28;9165;-75
2023/08/21 10:55:11;;;;;;;;;0.00;0.00;;;;;-146.67;100.00;57155.34;5082064;28;9060;-75
2023/08/21 10:57:37;;;;;;;;;0.67;0.67;;;;;-146.67;100.00;57155.34;5067521;28;8926;-76
2023/08/21 11:00:09;;;;;;;;;0.67;0.67;;;;;-146.67;100.00;57155.34;5067079;28;9057;-75
2023/08/21 11:02:36;;;;;;;;;0.00;0.00;;;;;-146.67;100.00;57155.34;5067205;28;10047;-76
2023/08/21 11:05:03;;;;;;;;;0.00;0.00;;;;;-146.67;100.00;57155.34;5067546;28;9104;-75
2023/08/21 11:07:29;;;;;;;;;0.67;0.67;;;;;-146.67;100.00;57155.34;5067864;28;9048;-76
2023/08/21 11:09:54;;;;;;;;;3.33;0.00;;;;;-146.67;100.00;57155.34;5085813;28;9008;-75
2023/08/21 11:12:21;;;;;;;;;0.00;0.00;;;;;-146.67;100.00;57155.34;5067658;28;10020;-75
2023/08/21 11:14:47;;;;;;;;;1.00;0.00;;;;;-146.67;100.00;57155.34;5067009;28;8831;-75